sensor_id;sensor_type;location;lat;lon;timestamp;P1;durP1;ratioP1;P2;durP2;ratioP2
20861;SDS011;10591;52.532;13.348;2023-12-20T00:01:53;8.48;;;7.30;;
20861;SDS011;10591;52.532;13.348;2023-12-20T00:04:24;7.92;;;7.12;;
20861;SDS011;10591;52.532;13.348;2023-12-20T00:06:54;8.38;;;7.33;;
20861;SDS011;10591;52.532;13.348;2023-12-20T00:09:25;8.03;;;7.20;;
20861;SDS011;10591;52.532;13.348;2023-12-20T00:11:56;7.92;;;7.12;;
20861;SDS011;10591;52.532;13.348;2023-12-20T00:14:26;8.13;;;7.08;;
20861;SDS011;10591;52.532;13.348;2023-12-20T00:16:57;7.70;;;6.90;;
20861;SDS011;10591;52.532;13.348;2023-12-20T00:19:28;7.25;;;6.45;;
20861;SDS011;10591;52.532;13.348;2023-12-20T00:21:59;8.23;;;7.40;;
20861;SDS011;10591;52.532;13.348;2023-12-20T00:24:30;7.55;;;6.60;;
20861;SDS011;10591;52.532;13.348;2023-12-20T00:27:00;7.28;;;6.47;;
20861;SDS011;10591;52.532;13.348;2023-12-20T00:29:31;7.62;;;6.83;;
20861;SDS011;10591;52.532;13.348;2023-12-20T00:32:02;7.67;;;6.95;;
20861;SDS011;10591;52.532;13.348;2023-12-20T00:34:33;7.78;;;6.80;;
20861;SDS011;10591;52.532;13.348;2023-12-20T00:37:04;7.65;;;6.78;;
20861;SDS011;10591;52.532;13.348;2023-12-20T00:39:34;7.42;;;6.40;;
20861;SDS011;10591;52.532;13.348;2023-12-20T00:42:05;7.40;;;6.50;;
20861;SDS011;10591;52.532;13.348;2023-12-20T00:44:37;7.80;;;7.00;;
20861;SDS011;10591;52.532;13.348;2023-12-20T00:47:11;8.28;;;7.30;;
20861;SDS011;10591;52.532;13.348;2023-12-20T00:49:42;7.85;;;7.05;;
20861;SDS011;10591;52.532;13.348;2023-12-20T00:52:13;8.00;;;7.15;;
20861;SDS011;10591;52.532;13.348;2023-12-20T00:54:43;7.28;;;6.45;;
20861;SDS011;10591;52.532;13.348;2023-12-20T00:57:16;7.87;;;7.00;;
20861;SDS011;10591;52.532;13.348;2023-12-20T00:59:47;8.88;;;7.50;;
20861;SDS011;10591;52.532;13.348;2023-12-20T01:02:17;9.43;;;7.83;;
20861;SDS011;10591;52.532;13.348;2023-12-20T01:04:48;9.03;;;7.70;;
20861;SDS011;10591;52.532;13.348;2023-12-20T01:07:20;8.25;;;7.35;;
20861;SDS011;10591;52.532;13.348;2023-12-20T01:09:51;7.97;;;7.17;;
20861;SDS011;10591;52.532;13.348;2023-12-20T01:12:24;8.68;;;7.70;;
20861;SDS011;10591;52.532;13.348;2023-12-20T01:14:54;8.65;;;7.67;;
20861;SDS011;10591;52.532;13.348;2023-12-20T01:17:27;8.63;;;6.95;;
20861;SDS011;10591;52.532;13.348;2023-12-20T01:19:57;8.08;;;6.95;;
20861;SDS011;10591;52.532;13.348;2023-12-20T01:22:28;8.63;;;7.53;;
20861;SDS011;10591;52.532;13.348;2023-12-20T01:25:02;8.15;;;7.35;;
20861;SDS011;10591;52.532;13.348;2023-12-20T01:27:33;8.43;;;7.42;;
20861;SDS011;10591;52.532;13.348;2023-12-20T01:30:04;10.58;;;7.65;;
20861;SDS011;10591;52.532;13.348;2023-12-20T01:32:36;8.25;;;7.40;;
20861;SDS011;10591;52.532;13.348;2023-12-20T01:35:07;8.13;;;7.08;;
20861;SDS011;10591;52.532;13.348;2023-12-20T01:37:40;8.53;;;7.15;;
20861;SDS011;10591;52.532;13.348;2023-12-20T01:40:11;7.92;;;7.12;;
20861;SDS011;10591;52.532;13.348;2023-12-20T01:42:42;8.15;;;7.00;;
20861;SDS011;10591;52.532;13.348;2023-12-20T01:45:13;8.55;;;6.97;;
20861;SDS011;10591;52.532;13.348;2023-12-20T01:47:43;7.72;;;6.83;;
20861;SDS011;10591;52.532;13.348;2023-12-20T01:50:14;7.53;;;6.70;;
20861;SDS011;10591;52.532;13.348;2023-12-20T01:52:45;7.45;;;6.53;;
20861;SDS011;10591;52.532;13.348;2023-12-20T01:55:16;9.10;;;7.17;;
20861;SDS011;10591;52.532;13.348;2023-12-20T01:57:51;9.70;;;7.17;;
20861;SDS011;10591;52.532;13.348;2023-12-20T02:00:22;9.13;;;7.42;;
20861;SDS011;10591;52.532;13.348;2023-12-20T02:02:55;8.83;;;6.83;;
20861;SDS011;10591;52.532;13.348;2023-12-20T02:05:28;6.80;;;6.05;;
20861;SDS011;10591;52.532;13.348;2023-12-20T02:08:02;5.80;;;5.20;;
20861;SDS011;10591;52.532;13.348;2023-12-20T02:10:34;6.37;;;4.90;;
20861;SDS011;10591;52.532;13.348;2023-12-20T02:13:06;4.67;;;3.50;;
20861;SDS011;10591;52.532;13.348;2023-12-20T02:15:37;3.30;;;2.92;;
20861;SDS011;10591;52.532;13.348;2023-12-20T02:18:10;5.62;;;3.37;;
20861;SDS011;10591;52.532;13.348;2023-12-20T02:20:44;3.20;;;2.90;;
20861;SDS011;10591;52.532;13.348;2023-12-20T02:23:15;3.08;;;2.77;;
20861;SDS011;10591;52.532;13.348;2023-12-20T02:25:47;4.92;;;3.47;;
20861;SDS011;10591;52.532;13.348;2023-12-20T02:28:22;4.10;;;3.60;;
20861;SDS011;10591;52.532;13.348;2023-12-20T02:30:54;4.87;;;4.30;;
20861;SDS011;10591;52.532;13.348;2023-12-20T02:33:25;6.97;;;5.12;;
20861;SDS011;10591;52.532;13.348;2023-12-20T02:35:56;6.33;;;5.50;;
20861;SDS011;10591;52.532;13.348;2023-12-20T02:38:27;6.85;;;6.10;;
20861;SDS011;10591;52.532;13.348;2023-12-20T02:40:57;6.92;;;6.20;;
20861;SDS011;10591;52.532;13.348;2023-12-20T02:43:28;8.20;;;6.53;;
20861;SDS011;10591;52.532;13.348;2023-12-20T02:46:00;8.20;;;6.97;;
20861;SDS011;10591;52.532;13.348;2023-12-20T02:48:34;8.10;;;6.75;;
20861;SDS011;10591;52.532;13.348;2023-12-20T02:51:04;7.92;;;6.92;;
20861;SDS011;10591;52.532;13.348;2023-12-20T02:53:36;7.40;;;6.65;;
20861;SDS011;10591;52.532;13.348;2023-12-20T02:56:09;10.08;;;6.90;;
20861;SDS011;10591;52.532;13.348;2023-12-20T02:58:40;9.10;;;7.10;;
20861;SDS011;10591;52.532;13.348;2023-12-20T03:01:11;9.15;;;7.12;;
20861;SDS011;10591;52.532;13.348;2023-12-20T03:03:44;9.60;;;7.08;;
20861;SDS011;10591;52.532;13.348;2023-12-20T03:06:18;10.32;;;6.55;;
20861;SDS011;10591;52.532;13.348;2023-12-20T03:08:49;8.88;;;6.20;;
20861;SDS011;10591;52.532;13.348;2023-12-20T03:11:20;8.38;;;6.42;;
20861;SDS011;10591;52.532;13.348;2023-12-20T03:13:50;6.80;;;5.40;;
20861;SDS011;10591;52.532;13.348;2023-12-20T03:16:25;7.50;;;5.17;;
20861;SDS011;10591;52.532;13.348;2023-12-20T03:18:56;8.15;;;4.83;;
20861;SDS011;10591;52.532;13.348;2023-12-20T03:21:27;9.18;;;5.17;;
20861;SDS011;10591;52.532;13.348;2023-12-20T03:23:57;6.22;;;4.25;;
20861;SDS011;10591;52.532;13.348;2023-12-20T03:26:29;7.77;;;4.67;;
20861;SDS011;10591;52.532;13.348;2023-12-20T03:28:59;7.72;;;3.98;;
20861;SDS011;10591;52.532;13.348;2023-12-20T03:31:30;6.20;;;4.22;;
20861;SDS011;10591;52.532;13.348;2023-12-20T03:34:01;5.62;;;3.83;;
20861;SDS011;10591;52.532;13.348;2023-12-20T03:36:32;5.87;;;3.65;;
20861;SDS011;10591;52.532;13.348;2023-12-20T03:39:03;10.17;;;4.13;;
20861;SDS011;10591;52.532;13.348;2023-12-20T03:41:35;11.85;;;4.22;;
20861;SDS011;10591;52.532;13.348;2023-12-20T03:44:06;9.78;;;3.50;;
20861;SDS011;10591;52.532;13.348;2023-12-20T03:46:37;7.37;;;3.45;;
20861;SDS011;10591;52.532;13.348;2023-12-20T03:49:08;11.97;;;4.10;;
20861;SDS011;10591;52.532;13.348;2023-12-20T03:51:39;8.08;;;3.45;;
20861;SDS011;10591;52.532;13.348;2023-12-20T03:54:10;11.50;;;3.58;;
20861;SDS011;10591;52.532;13.348;2023-12-20T03:56:41;8.73;;;3.70;;
20861;SDS011;10591;52.532;13.348;2023-12-20T03:59:11;10.23;;;3.25;;
20861;SDS011;10591;52.532;13.348;2023-12-20T04:01:43;9.90;;;3.00;;
20861;SDS011;10591;52.532;13.348;2023-12-20T04:04:14;9.95;;;3.90;;
20861;SDS011;10591;52.532;13.348;2023-12-20T04:06:44;12.83;;;3.83;;
20861;SDS011;10591;52.532;13.348;2023-12-20T04:09:15;10.35;;;3.40;;
20861;SDS011;10591;52.532;13.348;2023-12-20T04:11:46;9.40;;;3.45;;
20861;SDS011;10591;52.532;13.348;2023-12-20T04:14:17;7.80;;;3.12;;
20861;SDS011;10591;52.532;13.348;2023-12-20T04:16:47;10.00;;;3.40;;
20861;SDS011;10591;52.532;13.348;2023-12-20T04:19:18;7.30;;;2.60;;
20861;SDS011;10591;52.532;13.348;2023-12-20T04:21:48;9.33;;;2.80;;
20861;SDS011;10591;52.532;13.348;2023-12-20T04:24:24;8.30;;;2.72;;
20861;SDS011;10591;52.532;13.348;2023-12-20T04:26:55;8.43;;;2.98;;
20861;SDS011;10591;52.532;13.348;2023-12-20T04:29:26;6.45;;;2.70;;
20861;SDS011;10591;52.532;13.348;2023-12-20T04:31:56;8.75;;;2.98;;
20861;SDS011;10591;52.532;13.348;2023-12-20T04:34:27;10.03;;;3.37;;
20861;SDS011;10591;52.532;13.348;2023-12-20T04:37:00;7.33;;;2.85;;
20861;SDS011;10591;52.532;13.348;2023-12-20T04:39:31;8.20;;;2.92;;
20861;SDS011;10591;52.532;13.348;2023-12-20T04:42:02;6.72;;;3.00;;
20861;SDS011;10591;52.532;13.348;2023-12-20T04:44:33;8.25;;;3.50;;
20861;SDS011;10591;52.532;13.348;2023-12-20T04:47:03;7.10;;;3.45;;
20861;SDS011;10591;52.532;13.348;2023-12-20T04:49:37;12.28;;;3.80;;
20861;SDS011;10591;52.532;13.348;2023-12-20T04:52:08;8.83;;;3.27;;
20861;SDS011;10591;52.532;13.348;2023-12-20T04:54:42;5.75;;;3.33;;
20861;SDS011;10591;52.532;13.348;2023-12-20T04:57:13;9.60;;;3.20;;
20861;SDS011;10591;52.532;13.348;2023-12-20T04:59:47;10.15;;;3.67;;
20861;SDS011;10591;52.532;13.348;2023-12-20T05:02:17;12.47;;;3.92;;
20861;SDS011;10591;52.532;13.348;2023-12-20T05:04:49;8.65;;;3.77;;
20861;SDS011;10591;52.532;13.348;2023-12-20T05:07:21;12.05;;;4.15;;
20861;SDS011;10591;52.532;13.348;2023-12-20T05:09:52;9.15;;;3.55;;
20861;SDS011;10591;52.532;13.348;2023-12-20T05:12:23;12.03;;;3.42;;
20861;SDS011;10591;52.532;13.348;2023-12-20T05:14:53;7.42;;;3.22;;
20861;SDS011;10591;52.532;13.348;2023-12-20T05:17:24;9.65;;;3.55;;
20861;SDS011;10591;52.532;13.348;2023-12-20T05:19:55;6.92;;;3.50;;
20861;SDS011;10591;52.532;13.348;2023-12-20T05:22:26;10.70;;;3.62;;
20861;SDS011;10591;52.532;13.348;2023-12-20T05:24:57;8.20;;;2.98;;
20861;SDS011;10591;52.532;13.348;2023-12-20T05:27:29;12.15;;;3.20;;
20861;SDS011;10591;52.532;13.348;2023-12-20T05:30:00;6.65;;;2.98;;
20861;SDS011;10591;52.532;13.348;2023-12-20T05:32:31;10.95;;;2.98;;
20861;SDS011;10591;52.532;13.348;2023-12-20T05:35:01;6.42;;;2.20;;
20861;SDS011;10591;52.532;13.348;2023-12-20T05:37:32;11.17;;;2.57;;
20861;SDS011;10591;52.532;13.348;2023-12-20T05:40:03;7.33;;;2.70;;
20861;SDS011;10591;52.532;13.348;2023-12-20T05:42:37;13.08;;;2.62;;
20861;SDS011;10591;52.532;13.348;2023-12-20T05:45:08;11.08;;;2.55;;
20861;SDS011;10591;52.532;13.348;2023-12-20T05:47:41;7.10;;;2.37;;
20861;SDS011;10591;52.532;13.348;2023-12-20T05:50:12;6.00;;;2.42;;
20861;SDS011;10591;52.532;13.348;2023-12-20T05:52:42;7.10;;;2.60;;
20861;SDS011;10591;52.532;13.348;2023-12-20T05:55:13;10.98;;;2.62;;
20861;SDS011;10591;52.532;13.348;2023-12-20T05:57:44;11.00;;;2.52;;
20861;SDS011;10591;52.532;13.348;2023-12-20T06:00:15;8.75;;;2.95;;
20861;SDS011;10591;52.532;13.348;2023-12-20T06:02:47;9.20;;;3.00;;
20861;SDS011;10591;52.532;13.348;2023-12-20T06:05:17;8.80;;;2.80;;
20861;SDS011;10591;52.532;13.348;2023-12-20T06:07:48;9.65;;;3.05;;
20861;SDS011;10591;52.532;13.348;2023-12-20T06:10:20;7.53;;;2.72;;
20861;SDS011;10591;52.532;13.348;2023-12-20T06:12:51;8.30;;;3.20;;
20861;SDS011;10591;52.532;13.348;2023-12-20T06:15:23;8.78;;;2.58;;
20861;SDS011;10591;52.532;13.348;2023-12-20T06:17:53;6.20;;;2.50;;
20861;SDS011;10591;52.532;13.348;2023-12-20T06:20:24;14.78;;;3.22;;
20861;SDS011;10591;52.532;13.348;2023-12-20T06:22:55;7.17;;;2.40;;
20861;SDS011;10591;52.532;13.348;2023-12-20T06:25:25;7.37;;;2.50;;
20861;SDS011;10591;52.532;13.348;2023-12-20T06:27:57;10.32;;;2.95;;
20861;SDS011;10591;52.532;13.348;2023-12-20T06:30:27;6.25;;;2.42;;
20861;SDS011;10591;52.532;13.348;2023-12-20T06:32:59;8.33;;;2.65;;
20861;SDS011;10591;52.532;13.348;2023-12-20T06:35:29;7.92;;;3.00;;
20861;SDS011;10591;52.532;13.348;2023-12-20T06:38:03;11.15;;;3.00;;
20861;SDS011;10591;52.532;13.348;2023-12-20T06:40:34;8.23;;;3.00;;
20861;SDS011;10591;52.532;13.348;2023-12-20T06:43:05;6.53;;;2.72;;
20861;SDS011;10591;52.532;13.348;2023-12-20T06:45:39;5.45;;;2.55;;
20861;SDS011;10591;52.532;13.348;2023-12-20T06:48:11;7.80;;;2.77;;
20861;SDS011;10591;52.532;13.348;2023-12-20T06:50:42;6.95;;;2.40;;
20861;SDS011;10591;52.532;13.348;2023-12-20T06:53:14;6.67;;;2.70;;
20861;SDS011;10591;52.532;13.348;2023-12-20T06:55:46;7.77;;;2.73;;
20861;SDS011;10591;52.532;13.348;2023-12-20T06:58:18;10.75;;;3.35;;
20861;SDS011;10591;52.532;13.348;2023-12-20T07:00:48;10.88;;;3.22;;
20861;SDS011;10591;52.532;13.348;2023-12-20T07:03:20;8.28;;;3.70;;
20861;SDS011;10591;52.532;13.348;2023-12-20T07:05:51;12.75;;;3.12;;
20861;SDS011;10591;52.532;13.348;2023-12-20T07:08:21;9.13;;;2.58;;
20861;SDS011;10591;52.532;13.348;2023-12-20T07:10:52;5.67;;;2.47;;
20861;SDS011;10591;52.532;13.348;2023-12-20T07:13:24;7.97;;;3.10;;
20861;SDS011;10591;52.532;13.348;2023-12-20T07:15:55;6.13;;;2.97;;
20861;SDS011;10591;52.532;13.348;2023-12-20T07:18:26;7.30;;;2.97;;
20861;SDS011;10591;52.532;13.348;2023-12-20T07:20:57;9.93;;;3.33;;
20861;SDS011;10591;52.532;13.348;2023-12-20T07:23:28;7.87;;;2.85;;
20861;SDS011;10591;52.532;13.348;2023-12-20T07:25:59;11.15;;;3.15;;
20861;SDS011;10591;52.532;13.348;2023-12-20T07:28:29;8.50;;;2.83;;
20861;SDS011;10591;52.532;13.348;2023-12-20T07:31:00;7.10;;;3.02;;
20861;SDS011;10591;52.532;13.348;2023-12-20T07:33:33;8.43;;;2.90;;
20861;SDS011;10591;52.532;13.348;2023-12-20T07:36:05;8.83;;;2.87;;
20861;SDS011;10591;52.532;13.348;2023-12-20T07:38:38;6.37;;;3.00;;
20861;SDS011;10591;52.532;13.348;2023-12-20T07:41:11;3.65;;;2.58;;
20861;SDS011;10591;52.532;13.348;2023-12-20T07:43:42;8.37;;;2.90;;
20861;SDS011;10591;52.532;13.348;2023-12-20T07:46:13;8.70;;;2.52;;
20861;SDS011;10591;52.532;13.348;2023-12-20T07:48:44;8.05;;;3.00;;
20861;SDS011;10591;52.532;13.348;2023-12-20T07:51:15;10.83;;;2.80;;
20861;SDS011;10591;52.532;13.348;2023-12-20T07:53:46;6.30;;;2.70;;
20861;SDS011;10591;52.532;13.348;2023-12-20T07:56:17;8.98;;;2.87;;
20861;SDS011;10591;52.532;13.348;2023-12-20T07:58:49;5.62;;;2.22;;
20861;SDS011;10591;52.532;13.348;2023-12-20T08:01:21;5.62;;;2.62;;
20861;SDS011;10591;52.532;13.348;2023-12-20T08:03:52;6.12;;;2.45;;
20861;SDS011;10591;52.532;13.348;2023-12-20T08:06:26;6.12;;;2.40;;
20861;SDS011;10591;52.532;13.348;2023-12-20T08:08:58;7.33;;;2.35;;
20861;SDS011;10591;52.532;13.348;2023-12-20T08:11:30;6.72;;;2.35;;
20861;SDS011;10591;52.532;13.348;2023-12-20T08:14:00;8.48;;;2.65;;
20861;SDS011;10591;52.532;13.348;2023-12-20T08:16:31;5.45;;;2.60;;
20861;SDS011;10591;52.532;13.348;2023-12-20T08:19:02;8.35;;;2.27;;
20861;SDS011;10591;52.532;13.348;2023-12-20T08:21:33;4.85;;;2.50;;
20861;SDS011;10591;52.532;13.348;2023-12-20T08:24:07;7.53;;;2.37;;
20861;SDS011;10591;52.532;13.348;2023-12-20T08:26:38;6.65;;;2.90;;
20861;SDS011;10591;52.532;13.348;2023-12-20T08:29:08;7.80;;;3.05;;
20861;SDS011;10591;52.532;13.348;2023-12-20T08:31:39;6.25;;;2.95;;
20861;SDS011;10591;52.532;13.348;2023-12-20T08:34:12;11.25;;;3.30;;
20861;SDS011;10591;52.532;13.348;2023-12-20T08:36:44;4.87;;;2.62;;
20861;SDS011;10591;52.532;13.348;2023-12-20T08:39:17;8.85;;;2.60;;
20861;SDS011;10591;52.532;13.348;2023-12-20T08:41:50;5.67;;;2.52;;
20861;SDS011;10591;52.532;13.348;2023-12-20T08:44:21;7.33;;;2.52;;
20861;SDS011;10591;52.532;13.348;2023-12-20T08:46:51;7.80;;;2.47;;
20861;SDS011;10591;52.532;13.348;2023-12-20T08:49:22;5.40;;;2.17;;
20861;SDS011;10591;52.532;13.348;2023-12-20T08:51:57;4.55;;;2.72;;
20861;SDS011;10591;52.532;13.348;2023-12-20T08:54:28;8.70;;;2.83;;
20861;SDS011;10591;52.532;13.348;2023-12-20T08:56:59;8.78;;;2.72;;
20861;SDS011;10591;52.532;13.348;2023-12-20T08:59:29;8.35;;;2.40;;
20861;SDS011;10591;52.532;13.348;2023-12-20T09:02:00;11.95;;;2.77;;
20861;SDS011;10591;52.532;13.348;2023-12-20T09:04:31;6.47;;;2.40;;
20861;SDS011;10591;52.532;13.348;2023-12-20T09:07:06;6.80;;;2.40;;
20861;SDS011;10591;52.532;13.348;2023-12-20T09:09:36;7.63;;;3.40;;
20861;SDS011;10591;52.532;13.348;2023-12-20T09:12:07;8.90;;;2.73;;
20861;SDS011;10591;52.532;13.348;2023-12-20T09:14:38;6.62;;;2.70;;
20861;SDS011;10591;52.532;13.348;2023-12-20T09:17:09;7.87;;;2.60;;
20861;SDS011;10591;52.532;13.348;2023-12-20T09:19:40;7.07;;;3.00;;
20861;SDS011;10591;52.532;13.348;2023-12-20T09:22:14;5.62;;;2.25;;
20861;SDS011;10591;52.532;13.348;2023-12-20T09:24:45;6.85;;;2.65;;
20861;SDS011;10591;52.532;13.348;2023-12-20T09:27:15;7.78;;;3.02;;
20861;SDS011;10591;52.532;13.348;2023-12-20T09:29:48;8.13;;;2.70;;
20861;SDS011;10591;52.532;13.348;2023-12-20T09:32:19;10.13;;;2.92;;
20861;SDS011;10591;52.532;13.348;2023-12-20T09:34:50;6.22;;;2.22;;
20861;SDS011;10591;52.532;13.348;2023-12-20T09:37:20;5.85;;;2.37;;
20861;SDS011;10591;52.532;13.348;2023-12-20T09:39:54;9.20;;;2.87;;
20861;SDS011;10591;52.532;13.348;2023-12-20T09:42:38;9.35;;;2.80;;
20861;SDS011;10591;52.532;13.348;2023-12-20T09:45:29;5.60;;;2.87;;
20861;SDS011;10591;52.532;13.348;2023-12-20T09:48:01;8.05;;;2.80;;
20861;SDS011;10591;52.532;13.348;2023-12-20T09:50:35;8.58;;;3.02;;
20861;SDS011;10591;52.532;13.348;2023-12-20T09:53:07;4.87;;;2.80;;
20861;SDS011;10591;52.532;13.348;2023-12-20T09:55:41;14.68;;;3.08;;
20861;SDS011;10591;52.532;13.348;2023-12-20T09:58:11;9.15;;;2.80;;
20861;SDS011;10591;52.532;13.348;2023-12-20T10:00:43;8.10;;;2.33;;
20861;SDS011;10591;52.532;13.348;2023-12-20T10:03:15;5.85;;;2.58;;
20861;SDS011;10591;52.532;13.348;2023-12-20T10:05:48;7.47;;;2.72;;
20861;SDS011;10591;52.532;13.348;2023-12-20T10:08:22;5.50;;;2.58;;
20861;SDS011;10591;52.532;13.348;2023-12-20T10:10:54;10.95;;;2.80;;
20861;SDS011;10591;52.532;13.348;2023-12-20T10:13:27;10.17;;;3.73;;
20861;SDS011;10591;52.532;13.348;2023-12-20T10:15:57;7.28;;;2.95;;
20861;SDS011;10591;52.532;13.348;2023-12-20T10:18:30;10.95;;;3.92;;
20861;SDS011;10591;52.532;13.348;2023-12-20T10:21:02;8.13;;;3.17;;
20861;SDS011;10591;52.532;13.348;2023-12-20T10:23:33;9.80;;;3.30;;
20861;SDS011;10591;52.532;13.348;2023-12-20T10:26:05;7.05;;;2.80;;
20861;SDS011;10591;52.532;13.348;2023-12-20T10:28:36;10.60;;;2.85;;
20861;SDS011;10591;52.532;13.348;2023-12-20T10:31:07;6.62;;;2.67;;
20861;SDS011;10591;52.532;13.348;2023-12-20T10:33:38;9.68;;;2.90;;
20861;SDS011;10591;52.532;13.348;2023-12-20T10:36:12;10.18;;;3.95;;
20861;SDS011;10591;52.532;13.348;2023-12-20T10:38:43;9.05;;;2.98;;
20861;SDS011;10591;52.532;13.348;2023-12-20T10:41:16;8.13;;;2.83;;
20861;SDS011;10591;52.532;13.348;2023-12-20T10:43:49;7.72;;;2.80;;
20861;SDS011;10591;52.532;13.348;2023-12-20T10:46:20;8.60;;;2.70;;
20861;SDS011;10591;52.532;13.348;2023-12-20T10:48:56;10.28;;;3.17;;
20861;SDS011;10591;52.532;13.348;2023-12-20T10:51:28;10.53;;;2.83;;
20861;SDS011;10591;52.532;13.348;2023-12-20T10:53:59;9.73;;;3.15;;
20861;SDS011;10591;52.532;13.348;2023-12-20T10:56:32;10.95;;;3.10;;
20861;SDS011;10591;52.532;13.348;2023-12-20T10:59:05;10.58;;;3.30;;
20861;SDS011;10591;52.532;13.348;2023-12-20T11:01:41;9.00;;;3.50;;
20861;SDS011;10591;52.532;13.348;2023-12-20T11:04:14;7.42;;;3.05;;
20861;SDS011;10591;52.532;13.348;2023-12-20T11:06:51;7.08;;;2.72;;
20861;SDS011;10591;52.532;13.348;2023-12-20T11:09:26;7.90;;;2.87;;
20861;SDS011;10591;52.532;13.348;2023-12-20T11:14:53;9.75;;;3.40;;
20861;SDS011;10591;52.532;13.348;2023-12-20T11:17:25;9.50;;;3.35;;
20861;SDS011;10591;52.532;13.348;2023-12-20T11:22:31;9.40;;;3.40;;
20861;SDS011;10591;52.532;13.348;2023-12-20T11:25:05;10.70;;;3.47;;
20861;SDS011;10591;52.532;13.348;2023-12-20T11:27:41;10.95;;;3.37;;
20861;SDS011;10591;52.532;13.348;2023-12-20T11:30:16;7.75;;;3.55;;
20861;SDS011;10591;52.532;13.348;2023-12-20T11:32:48;12.88;;;3.45;;
20861;SDS011;10591;52.532;13.348;2023-12-20T11:35:22;9.13;;;3.20;;
20861;SDS011;10591;52.532;13.348;2023-12-20T11:37:53;9.03;;;3.25;;
20861;SDS011;10591;52.532;13.348;2023-12-20T11:40:23;8.58;;;3.35;;
20861;SDS011;10591;52.532;13.348;2023-12-20T11:42:57;9.70;;;3.33;;
20861;SDS011;10591;52.532;13.348;2023-12-20T11:45:29;8.68;;;3.45;;
20861;SDS011;10591;52.532;13.348;2023-12-20T11:48:01;8.93;;;3.35;;
20861;SDS011;10591;52.532;13.348;2023-12-20T11:50:32;8.98;;;3.20;;
20861;SDS011;10591;52.532;13.348;2023-12-20T11:53:05;8.10;;;3.27;;
20861;SDS011;10591;52.532;13.348;2023-12-20T11:55:37;7.87;;;3.40;;
20861;SDS011;10591;52.532;13.348;2023-12-20T11:58:07;6.90;;;3.00;;
20861;SDS011;10591;52.532;13.348;2023-12-20T12:00:38;7.30;;;2.75;;
20861;SDS011;10591;52.532;13.348;2023-12-20T12:03:09;6.53;;;2.90;;
20861;SDS011;10591;52.532;13.348;2023-12-20T12:05:39;10.40;;;3.50;;
20861;SDS011;10591;52.532;13.348;2023-12-20T12:08:11;5.90;;;2.87;;
20861;SDS011;10591;52.532;13.348;2023-12-20T12:10:48;9.35;;;3.75;;
20861;SDS011;10591;52.532;13.348;2023-12-20T12:13:15;9.65;;;3.10;;
20861;SDS011;10591;52.532;13.348;2023-12-20T12:15:46;7.92;;;3.15;;
20861;SDS011;10591;52.532;13.348;2023-12-20T12:18:19;6.17;;;2.55;;
20861;SDS011;10591;52.532;13.348;2023-12-20T12:20:49;6.65;;;3.05;;
20861;SDS011;10591;52.532;13.348;2023-12-20T12:23:24;8.28;;;2.85;;
20861;SDS011;10591;52.532;13.348;2023-12-20T12:25:59;8.68;;;3.22;;
20861;SDS011;10591;52.532;13.348;2023-12-20T12:28:34;5.90;;;3.12;;
20861;SDS011;10591;52.532;13.348;2023-12-20T12:31:05;8.45;;;3.22;;
20861;SDS011;10591;52.532;13.348;2023-12-20T12:33:37;9.88;;;3.27;;
20861;SDS011;10591;52.532;13.348;2023-12-20T12:36:10;8.10;;;3.17;;
20861;SDS011;10591;52.532;13.348;2023-12-20T12:38:44;4.50;;;2.70;;
20861;SDS011;10591;52.532;13.348;2023-12-20T12:41:14;10.28;;;3.22;;
20861;SDS011;10591;52.532;13.348;2023-12-20T12:43:46;7.10;;;3.15;;
20861;SDS011;10591;52.532;13.348;2023-12-20T12:46:17;6.50;;;3.08;;
20861;SDS011;10591;52.532;13.348;2023-12-20T12:48:49;7.58;;;3.27;;
20861;SDS011;10591;52.532;13.348;2023-12-20T12:51:21;8.68;;;3.70;;
20861;SDS011;10591;52.532;13.348;2023-12-20T12:53:53;5.53;;;3.55;;
20861;SDS011;10591;52.532;13.348;2023-12-20T12:56:23;8.40;;;3.45;;
20861;SDS011;10591;52.532;13.348;2023-12-20T12:58:57;9.73;;;3.53;;
20861;SDS011;10591;52.532;13.348;2023-12-20T13:01:28;7.92;;;3.27;;
20861;SDS011;10591;52.532;13.348;2023-12-20T13:03:59;6.45;;;3.45;;
20861;SDS011;10591;52.532;13.348;2023-12-20T13:06:33;8.88;;;3.60;;
20861;SDS011;10591;52.532;13.348;2023-12-20T13:09:14;6.50;;;3.60;;
20861;SDS011;10591;52.532;13.348;2023-12-20T13:11:45;9.40;;;3.77;;
20861;SDS011;10591;52.532;13.348;2023-12-20T13:14:15;6.62;;;3.30;;
20861;SDS011;10591;52.532;13.348;2023-12-20T13:16:48;6.22;;;3.87;;
20861;SDS011;10591;52.532;13.348;2023-12-20T13:19:19;7.58;;;4.37;;
20861;SDS011;10591;52.532;13.348;2023-12-20T13:21:52;4.75;;;3.47;;
20861;SDS011;10591;52.532;13.348;2023-12-20T13:24:24;4.90;;;2.40;;
20861;SDS011;10591;52.532;13.348;2023-12-20T13:26:57;4.60;;;2.20;;
20861;SDS011;10591;52.532;13.348;2023-12-20T13:29:30;4.47;;;2.40;;
20861;SDS011;10591;52.532;13.348;2023-12-20T13:32:01;3.25;;;2.10;;
20861;SDS011;10591;52.532;13.348;2023-12-20T13:34:32;13.53;;;7.40;;
20861;SDS011;10591;52.532;13.348;2023-12-20T13:37:03;2.85;;;2.60;;
20861;SDS011;10591;52.532;13.348;2023-12-20T13:39:36;2.77;;;1.45;;
20861;SDS011;10591;52.532;13.348;2023-12-20T13:42:08;1.20;;;1.10;;
20861;SDS011;10591;52.532;13.348;2023-12-20T13:44:40;7.83;;;1.95;;
20861;SDS011;10591;52.532;13.348;2023-12-20T13:47:12;3.90;;;1.70;;
20861;SDS011;10591;52.532;13.348;2023-12-20T13:49:45;2.57;;;1.53;;
20861;SDS011;10591;52.532;13.348;2023-12-20T13:52:24;2.87;;;1.62;;
20861;SDS011;10591;52.532;13.348;2023-12-20T13:55:00;1.30;;;1.00;;
20861;SDS011;10591;52.532;13.348;2023-12-20T13:57:30;2.83;;;1.52;;
20861;SDS011;10591;52.532;13.348;2023-12-20T14:00:06;1.50;;;1.40;;
20861;SDS011;10591;52.532;13.348;2023-12-20T14:02:41;2.30;;;1.85;;
20861;SDS011;10591;52.532;13.348;2023-12-20T14:05:13;3.22;;;1.65;;
20861;SDS011;10591;52.532;13.348;2023-12-20T14:07:47;3.47;;;1.55;;
20861;SDS011;10591;52.532;13.348;2023-12-20T14:10:19;2.22;;;1.37;;
20861;SDS011;10591;52.532;13.348;2023-12-20T14:12:50;2.23;;;1.93;;
20861;SDS011;10591;52.532;13.348;2023-12-20T14:15:21;3.45;;;1.70;;
20861;SDS011;10591;52.532;13.348;2023-12-20T14:17:53;3.55;;;1.52;;
20861;SDS011;10591;52.532;13.348;2023-12-20T14:20:26;2.37;;;1.52;;
20861;SDS011;10591;52.532;13.348;2023-12-20T14:23:00;2.67;;;1.50;;
20861;SDS011;10591;52.532;13.348;2023-12-20T14:25:31;2.37;;;1.37;;
20861;SDS011;10591;52.532;13.348;2023-12-20T14:28:04;2.72;;;1.30;;
20861;SDS011;10591;52.532;13.348;2023-12-20T14:30:35;2.87;;;1.17;;
20861;SDS011;10591;52.532;13.348;2023-12-20T14:33:07;1.87;;;1.00;;
20861;SDS011;10591;52.532;13.348;2023-12-20T14:35:39;3.07;;;1.30;;
20861;SDS011;10591;52.532;13.348;2023-12-20T14:38:13;1.95;;;1.10;;
20861;SDS011;10591;52.532;13.348;2023-12-20T14:40:44;1.73;;;0.90;;
20861;SDS011;10591;52.532;13.348;2023-12-20T14:43:16;3.30;;;1.45;;
20861;SDS011;10591;52.532;13.348;2023-12-20T14:45:47;2.30;;;1.20;;
20861;SDS011;10591;52.532;13.348;2023-12-20T14:48:18;2.77;;;1.10;;
20861;SDS011;10591;52.532;13.348;2023-12-20T14:50:50;4.47;;;1.37;;
20861;SDS011;10591;52.532;13.348;2023-12-20T14:53:21;1.12;;;1.02;;
20861;SDS011;10591;52.532;13.348;2023-12-20T14:55:52;1.90;;;1.20;;
20861;SDS011;10591;52.532;13.348;2023-12-20T14:58:23;2.33;;;1.30;;
20861;SDS011;10591;52.532;13.348;2023-12-20T15:00:53;2.00;;;1.50;;
20861;SDS011;10591;52.532;13.348;2023-12-20T15:03:25;2.43;;;1.40;;
20861;SDS011;10591;52.532;13.348;2023-12-20T15:05:55;4.22;;;1.67;;